sensor_id;sensor_type;location;lat;lon;timestamp;P1;durP1;ratioP1;P2;durP2;ratioP2
2035;SDS011;23642;42.658;23.350;2024-01-15T00:00:28;140.75;;;129.77;;
2035;SDS011;23642;42.658;23.350;2024-01-15T00:02:58;135.43;;;124.85;;
2035;SDS011;23642;42.658;23.350;2024-01-15T00:05:25;140.00;;;128.73;;
2035;SDS011;23642;42.658;23.350;2024-01-15T00:07:52;139.05;;;128.15;;
2035;SDS011;23642;42.658;23.350;2024-01-15T00:10:19;138.98;;;127.50;;
2035;SDS011;23642;42.658;23.350;2024-01-15T00:12:46;135.70;;;124.35;;
2035;SDS011;23642;42.658;23.350;2024-01-15T00:15:13;136.07;;;124.93;;
2035;SDS011;23642;42.658;23.350;2024-01-15T00:17:40;137.05;;;125.80;;
2035;SDS011;23642;42.658;23.350;2024-01-15T00:20:09;136.15;;;125.68;;
2035;SDS011;23642;42.658;23.350;2024-01-15T00:22:37;135.85;;;124.90;;
2035;SDS011;23642;42.658;23.350;2024-01-15T00:25:04;132.57;;;121.95;;
2035;SDS011;23642;42.658;23.350;2024-01-15T00:27:32;137.95;;;127.40;;
2035;SDS011;23642;42.658;23.350;2024-01-15T00:29:59;134.38;;;123.93;;
2035;SDS011;23642;42.658;23.350;2024-01-15T00:32:26;134.05;;;123.55;;
2035;SDS011;23642;42.658;23.350;2024-01-15T00:34:53;138.38;;;126.90;;
2035;SDS011;23642;42.658;23.350;2024-01-15T00:37:22;138.43;;;127.50;;
2035;SDS011;23642;42.658;23.350;2024-01-15T00:39:49;135.10;;;124.65;;
2035;SDS011;23642;42.658;23.350;2024-01-15T00:42:16;138.05;;;127.35;;
2035;SDS011;23642;42.658;23.350;2024-01-15T00:44:44;135.20;;;124.10;;
2035;SDS011;23642;42.658;23.350;2024-01-15T00:47:14;135.55;;;125.00;;
2035;SDS011;23642;42.658;23.350;2024-01-15T00:49:41;134.85;;;124.18;;
2035;SDS011;23642;42.658;23.350;2024-01-15T00:52:08;134.65;;;124.40;;
2035;SDS011;23642;42.658;23.350;2024-01-15T00:54:36;135.90;;;125.45;;
2035;SDS011;23642;42.658;23.350;2024-01-15T00:57:05;132.18;;;121.50;;
2035;SDS011;23642;42.658;23.350;2024-01-15T00:59:32;137.95;;;126.20;;
2035;SDS011;23642;42.658;23.350;2024-01-15T01:02:00;136.95;;;125.80;;
2035;SDS011;23642;42.658;23.350;2024-01-15T01:04:27;133.20;;;123.22;;
2035;SDS011;23642;42.658;23.350;2024-01-15T01:06:54;137.57;;;127.13;;
2035;SDS011;23642;42.658;23.350;2024-01-15T01:09:21;135.07;;;124.47;;
2035;SDS011;23642;42.658;23.350;2024-01-15T01:11:50;137.23;;;125.95;;
2035;SDS011;23642;42.658;23.350;2024-01-15T01:14:17;133.57;;;123.65;;
2035;SDS011;23642;42.658;23.350;2024-01-15T01:16:43;137.35;;;126.43;;
2035;SDS011;23642;42.658;23.350;2024-01-15T01:19:10;135.48;;;124.70;;
2035;SDS011;23642;42.658;23.350;2024-01-15T01:21:37;139.00;;;128.13;;
2035;SDS011;23642;42.658;23.350;2024-01-15T01:24:04;136.68;;;126.18;;
2035;SDS011;23642;42.658;23.350;2024-01-15T01:26:32;134.40;;;124.60;;
2035;SDS011;23642;42.658;23.350;2024-01-15T01:29:00;131.13;;;121.43;;
2035;SDS011;23642;42.658;23.350;2024-01-15T01:31:27;132.35;;;122.47;;
2035;SDS011;23642;42.658;23.350;2024-01-15T01:33:54;131.07;;;121.57;;
2035;SDS011;23642;42.658;23.350;2024-01-15T01:36:21;131.50;;;121.40;;
2035;SDS011;23642;42.658;23.350;2024-01-15T01:38:48;132.07;;;122.40;;
2035;SDS011;23642;42.658;23.350;2024-01-15T01:41:17;131.60;;;121.80;;
2035;SDS011;23642;42.658;23.350;2024-01-15T01:43:44;132.70;;;122.65;;
2035;SDS011;23642;42.658;23.350;2024-01-15T01:46:12;133.93;;;123.75;;
2035;SDS011;23642;42.658;23.350;2024-01-15T01:48:39;138.65;;;127.22;;
2035;SDS011;23642;42.658;23.350;2024-01-15T01:51:06;131.98;;;121.40;;
2035;SDS011;23642;42.658;23.350;2024-01-15T01:53:33;134.52;;;123.97;;
2035;SDS011;23642;42.658;23.350;2024-01-15T01:56:04;133.05;;;122.85;;
2035;SDS011;23642;42.658;23.350;2024-01-15T01:58:33;129.60;;;119.78;;
2035;SDS011;23642;42.658;23.350;2024-01-15T02:01:00;132.38;;;122.47;;
2035;SDS011;23642;42.658;23.350;2024-01-15T02:03:29;127.35;;;118.35;;
2035;SDS011;23642;42.658;23.350;2024-01-15T02:05:57;129.45;;;119.05;;
2035;SDS011;23642;42.658;23.350;2024-01-15T02:08:25;131.10;;;120.22;;
2035;SDS011;23642;42.658;23.350;2024-01-15T02:10:53;129.90;;;119.80;;
2035;SDS011;23642;42.658;23.350;2024-01-15T02:13:20;127.55;;;118.45;;
2035;SDS011;23642;42.658;23.350;2024-01-15T02:15:47;126.75;;;116.85;;
2035;SDS011;23642;42.658;23.350;2024-01-15T02:18:14;128.90;;;118.47;;
2035;SDS011;23642;42.658;23.350;2024-01-15T02:20:46;129.40;;;120.05;;
2035;SDS011;23642;42.658;23.350;2024-01-15T02:23:15;127.00;;;117.65;;
2035;SDS011;23642;42.658;23.350;2024-01-15T02:25:43;124.30;;;115.43;;
2035;SDS011;23642;42.658;23.350;2024-01-15T02:28:12;127.47;;;118.50;;
2035;SDS011;23642;42.658;23.350;2024-01-15T02:30:44;126.82;;;117.78;;
2035;SDS011;23642;42.658;23.350;2024-01-15T02:33:11;123.40;;;115.18;;
2035;SDS011;23642;42.658;23.350;2024-01-15T02:35:38;124.43;;;115.63;;
2035;SDS011;23642;42.658;23.350;2024-01-15T02:38:06;123.85;;;114.80;;
2035;SDS011;23642;42.658;23.350;2024-01-15T02:40:35;124.53;;;116.32;;
2035;SDS011;23642;42.658;23.350;2024-01-15T02:43:02;123.47;;;114.78;;
2035;SDS011;23642;42.658;23.350;2024-01-15T02:45:29;125.75;;;116.65;;
2035;SDS011;23642;42.658;23.350;2024-01-15T02:47:56;121.15;;;112.70;;
2035;SDS011;23642;42.658;23.350;2024-01-15T02:50:24;127.47;;;118.07;;
2035;SDS011;23642;42.658;23.350;2024-01-15T02:52:50;122.47;;;113.68;;
2035;SDS011;23642;42.658;23.350;2024-01-15T02:55:17;127.63;;;118.63;;
2035;SDS011;23642;42.658;23.350;2024-01-15T02:57:46;125.72;;;116.63;;
2035;SDS011;23642;42.658;23.350;2024-01-15T03:00:13;125.40;;;116.75;;
2035;SDS011;23642;42.658;23.350;2024-01-15T03:02:44;124.03;;;115.55;;
2035;SDS011;23642;42.658;23.350;2024-01-15T03:05:11;125.72;;;116.72;;
2035;SDS011;23642;42.658;23.350;2024-01-15T03:07:38;126.47;;;117.63;;
2035;SDS011;23642;42.658;23.350;2024-01-15T03:10:06;129.05;;;120.07;;
2035;SDS011;23642;42.658;23.350;2024-01-15T03:12:33;131.05;;;120.95;;
2035;SDS011;23642;42.658;23.350;2024-01-15T03:15:02;133.65;;;123.53;;
2035;SDS011;23642;42.658;23.350;2024-01-15T03:17:30;133.80;;;123.78;;
2035;SDS011;23642;42.658;23.350;2024-01-15T03:19:57;134.38;;;124.47;;
2035;SDS011;23642;42.658;23.350;2024-01-15T03:22:24;130.68;;;120.65;;
2035;SDS011;23642;42.658;23.350;2024-01-15T03:24:52;132.30;;;123.07;;
2035;SDS011;23642;42.658;23.350;2024-01-15T03:27:19;134.27;;;123.95;;
2035;SDS011;23642;42.658;23.350;2024-01-15T03:29:46;134.93;;;124.95;;
2035;SDS011;23642;42.658;23.350;2024-01-15T03:32:15;135.65;;;125.50;;
2035;SDS011;23642;42.658;23.350;2024-01-15T03:34:44;135.65;;;125.07;;
2035;SDS011;23642;42.658;23.350;2024-01-15T03:37:12;142.20;;;131.27;;
2035;SDS011;23642;42.658;23.350;2024-01-15T03:39:39;141.07;;;130.20;;
2035;SDS011;23642;42.658;23.350;2024-01-15T03:42:06;136.55;;;126.55;;
2035;SDS011;23642;42.658;23.350;2024-01-15T03:44:34;138.93;;;128.13;;
2035;SDS011;23642;42.658;23.350;2024-01-15T03:47:02;142.35;;;131.32;;
2035;SDS011;23642;42.658;23.350;2024-01-15T03:49:31;138.95;;;128.25;;
2035;SDS011;23642;42.658;23.350;2024-01-15T03:51:58;137.32;;;127.22;;
2035;SDS011;23642;42.658;23.350;2024-01-15T03:54:25;141.90;;;130.70;;
2035;SDS011;23642;42.658;23.350;2024-01-15T03:56:52;141.68;;;130.57;;
2035;SDS011;23642;42.658;23.350;2024-01-15T03:59:19;137.90;;;127.90;;
2035;SDS011;23642;42.658;23.350;2024-01-15T04:01:49;137.35;;;127.28;;
2035;SDS011;23642;42.658;23.350;2024-01-15T04:04:16;140.43;;;130.02;;
2035;SDS011;23642;42.658;23.350;2024-01-15T04:06:45;137.75;;;126.95;;
2035;SDS011;23642;42.658;23.350;2024-01-15T04:09:11;141.07;;;130.55;;
2035;SDS011;23642;42.658;23.350;2024-01-15T04:11:39;139.32;;;128.70;;
2035;SDS011;23642;42.658;23.350;2024-01-15T04:14:06;139.57;;;129.15;;
2035;SDS011;23642;42.658;23.350;2024-01-15T04:16:33;140.73;;;130.20;;
2035;SDS011;23642;42.658;23.350;2024-01-15T04:19:00;138.95;;;128.35;;
2035;SDS011;23642;42.658;23.350;2024-01-15T04:21:27;137.80;;;127.40;;
2035;SDS011;23642;42.658;23.350;2024-01-15T04:23:56;146.32;;;134.93;;
2035;SDS011;23642;42.658;23.350;2024-01-15T04:26:26;137.88;;;127.50;;
2035;SDS011;23642;42.658;23.350;2024-01-15T04:28:53;141.82;;;130.85;;
2035;SDS011;23642;42.658;23.350;2024-01-15T04:31:20;143.23;;;131.52;;
2035;SDS011;23642;42.658;23.350;2024-01-15T04:33:48;143.15;;;131.73;;
2035;SDS011;23642;42.658;23.350;2024-01-15T04:36:15;142.63;;;131.07;;
2035;SDS011;23642;42.658;23.350;2024-01-15T04:38:42;141.65;;;131.48;;
2035;SDS011;23642;42.658;23.350;2024-01-15T04:41:11;143.98;;;132.98;;
2035;SDS011;23642;42.658;23.350;2024-01-15T04:43:39;145.23;;;134.27;;
2035;SDS011;23642;42.658;23.350;2024-01-15T04:46:06;141.73;;;130.85;;
2035;SDS011;23642;42.658;23.350;2024-01-15T04:48:33;144.50;;;132.82;;
2035;SDS011;23642;42.658;23.350;2024-01-15T04:51:00;144.10;;;133.30;;
2035;SDS011;23642;42.658;23.350;2024-01-15T04:53:28;142.18;;;131.50;;
2035;SDS011;23642;42.658;23.350;2024-01-15T04:55:55;139.93;;;129.95;;
2035;SDS011;23642;42.658;23.350;2024-01-15T04:58:24;142.05;;;131.05;;
2035;SDS011;23642;42.658;23.350;2024-01-15T05:00:52;141.02;;;129.68;;
2035;SDS011;23642;42.658;23.350;2024-01-15T05:03:19;141.85;;;130.77;;
2035;SDS011;23642;42.658;23.350;2024-01-15T05:05:47;143.45;;;132.02;;
2035;SDS011;23642;42.658;23.350;2024-01-15T05:08:14;141.38;;;131.23;;
2035;SDS011;23642;42.658;23.350;2024-01-15T05:10:41;140.88;;;130.82;;
2035;SDS011;23642;42.658;23.350;2024-01-15T05:13:08;145.73;;;134.13;;
2035;SDS011;23642;42.658;23.350;2024-01-15T05:15:36;145.10;;;133.18;;
2035;SDS011;23642;42.658;23.350;2024-01-15T05:18:03;146.40;;;135.15;;
2035;SDS011;23642;42.658;23.350;2024-01-15T05:20:34;144.68;;;133.70;;
2035;SDS011;23642;42.658;23.350;2024-01-15T05:23:00;137.55;;;127.90;;
2035;SDS011;23642;42.658;23.350;2024-01-15T05:25:27;139.35;;;128.55;;
2035;SDS011;23642;42.658;23.350;2024-01-15T05:27:54;138.40;;;127.43;;
2035;SDS011;23642;42.658;23.350;2024-01-15T05:30:21;142.98;;;132.13;;
2035;SDS011;23642;42.658;23.350;2024-01-15T05:32:50;142.55;;;131.60;;
2035;SDS011;23642;42.658;23.350;2024-01-15T05:35:17;142.82;;;131.77;;
2035;SDS011;23642;42.658;23.350;2024-01-15T05:37:44;146.48;;;134.80;;
2035;SDS011;23642;42.658;23.350;2024-01-15T05:40:12;139.70;;;128.70;;
2035;SDS011;23642;42.658;23.350;2024-01-15T05:42:39;145.48;;;134.27;;
2035;SDS011;23642;42.658;23.350;2024-01-15T05:45:08;142.48;;;131.10;;
2035;SDS011;23642;42.658;23.350;2024-01-15T05:47:35;149.93;;;137.68;;
2035;SDS011;23642;42.658;23.350;2024-01-15T05:50:05;146.48;;;134.88;;
2035;SDS011;23642;42.658;23.350;2024-01-15T05:52:32;146.50;;;134.82;;
2035;SDS011;23642;42.658;23.350;2024-01-15T05:54:59;151.10;;;138.20;;
2035;SDS011;23642;42.658;23.350;2024-01-15T05:57:27;161.43;;;147.13;;
2035;SDS011;23642;42.658;23.350;2024-01-15T05:59:54;154.13;;;141.68;;
2035;SDS011;23642;42.658;23.350;2024-01-15T06:02:21;162.25;;;148.07;;
2035;SDS011;23642;42.658;23.350;2024-01-15T06:04:51;158.77;;;145.60;;
2035;SDS011;23642;42.658;23.350;2024-01-15T06:07:19;158.88;;;145.10;;
2035;SDS011;23642;42.658;23.350;2024-01-15T06:09:47;156.05;;;143.18;;
2035;SDS011;23642;42.658;23.350;2024-01-15T06:12:16;156.52;;;143.13;;
2035;SDS011;23642;42.658;23.350;2024-01-15T06:14:42;158.45;;;145.23;;
2035;SDS011;23642;42.658;23.350;2024-01-15T06:17:09;159.68;;;144.90;;
2035;SDS011;23642;42.658;23.350;2024-01-15T06:19:36;161.88;;;146.80;;
2035;SDS011;23642;42.658;23.350;2024-01-15T06:22:03;159.95;;;145.85;;
2035;SDS011;23642;42.658;23.350;2024-01-15T06:24:31;161.13;;;147.30;;
2035;SDS011;23642;42.658;23.350;2024-01-15T06:26:58;163.90;;;149.57;;
2035;SDS011;23642;42.658;23.350;2024-01-15T06:29:26;165.52;;;150.23;;
2035;SDS011;23642;42.658;23.350;2024-01-15T06:31:53;159.75;;;145.65;;
2035;SDS011;23642;42.658;23.350;2024-01-15T06:34:19;156.13;;;143.07;;
2035;SDS011;23642;42.658;23.350;2024-01-15T06:36:47;167.07;;;151.55;;
2035;SDS011;23642;42.658;23.350;2024-01-15T06:39:14;160.20;;;145.93;;
2035;SDS011;23642;42.658;23.350;2024-01-15T06:41:42;157.88;;;144.52;;
2035;SDS011;23642;42.658;23.350;2024-01-15T06:44:09;164.45;;;150.10;;
2035;SDS011;23642;42.658;23.350;2024-01-15T06:46:42;164.85;;;150.10;;
2035;SDS011;23642;42.658;23.350;2024-01-15T06:49:09;167.82;;;152.85;;
2035;SDS011;23642;42.658;23.350;2024-01-15T06:51:36;164.95;;;150.80;;
2035;SDS011;23642;42.658;23.350;2024-01-15T06:54:04;175.63;;;159.82;;
2035;SDS011;23642;42.658;23.350;2024-01-15T06:56:31;171.65;;;155.68;;
2035;SDS011;23642;42.658;23.350;2024-01-15T06:59:00;171.23;;;156.10;;
2035;SDS011;23642;42.658;23.350;2024-01-15T07:01:27;169.40;;;154.25;;
2035;SDS011;23642;42.658;23.350;2024-01-15T07:03:54;171.68;;;156.35;;
2035;SDS011;23642;42.658;23.350;2024-01-15T07:06:21;174.77;;;158.93;;
2035;SDS011;23642;42.658;23.350;2024-01-15T07:08:48;178.18;;;162.10;;
2035;SDS011;23642;42.658;23.350;2024-01-15T07:11:15;175.52;;;159.50;;
2035;SDS011;23642;42.658;23.350;2024-01-15T07:13:42;178.07;;;162.35;;
2035;SDS011;23642;42.658;23.350;2024-01-15T07:16:10;177.73;;;162.52;;
2035;SDS011;23642;42.658;23.350;2024-01-15T07:18:38;183.68;;;167.60;;
2035;SDS011;23642;42.658;23.350;2024-01-15T07:21:07;176.48;;;161.43;;
2035;SDS011;23642;42.658;23.350;2024-01-15T07:23:34;179.38;;;164.48;;
2035;SDS011;23642;42.658;23.350;2024-01-15T07:27:37;168.38;;;154.80;;
2035;SDS011;23642;42.658;23.350;2024-01-15T07:30:06;176.30;;;161.50;;
2035;SDS011;23642;42.658;23.350;2024-01-15T07:32:34;179.35;;;164.27;;
2035;SDS011;23642;42.658;23.350;2024-01-15T07:35:05;178.43;;;163.95;;
2035;SDS011;23642;42.658;23.350;2024-01-15T07:37:32;184.68;;;168.80;;
2035;SDS011;23642;42.658;23.350;2024-01-15T07:39:59;180.32;;;165.48;;
2035;SDS011;23642;42.658;23.350;2024-01-15T07:42:26;178.30;;;162.90;;
2035;SDS011;23642;42.658;23.350;2024-01-15T07:44:56;176.43;;;161.63;;
2035;SDS011;23642;42.658;23.350;2024-01-15T07:47:23;182.95;;;167.70;;
2035;SDS011;23642;42.658;23.350;2024-01-15T07:49:51;177.10;;;162.35;;
2035;SDS011;23642;42.658;23.350;2024-01-15T07:52:20;176.48;;;161.80;;
2035;SDS011;23642;42.658;23.350;2024-01-15T07:54:47;171.82;;;157.88;;
2035;SDS011;23642;42.658;23.350;2024-01-15T07:57:14;170.50;;;156.40;;
2035;SDS011;23642;42.658;23.350;2024-01-15T07:59:41;169.95;;;156.48;;
2035;SDS011;23642;42.658;23.350;2024-01-15T08:02:14;169.55;;;155.98;;
2035;SDS011;23642;42.658;23.350;2024-01-15T08:04:41;170.50;;;156.95;;
2035;SDS011;23642;42.658;23.350;2024-01-15T08:07:09;163.48;;;150.15;;
2035;SDS011;23642;42.658;23.350;2024-01-15T08:09:38;159.77;;;146.75;;
2035;SDS011;23642;42.658;23.350;2024-01-15T08:12:05;171.32;;;157.68;;
2035;SDS011;23642;42.658;23.350;2024-01-15T08:14:32;162.23;;;149.48;;
2035;SDS011;23642;42.658;23.350;2024-01-15T08:16:59;163.18;;;151.00;;
2035;SDS011;23642;42.658;23.350;2024-01-15T08:19:28;163.50;;;150.95;;
2035;SDS011;23642;42.658;23.350;2024-01-15T08:21:59;153.93;;;141.57;;
2035;SDS011;23642;42.658;23.350;2024-01-15T08:27:30;154.70;;;142.98;;
2035;SDS011;23642;42.658;23.350;2024-01-15T08:29:57;155.38;;;143.10;;
2035;SDS011;23642;42.658;23.350;2024-01-15T08:32:26;159.85;;;147.13;;
2035;SDS011;23642;42.658;23.350;2024-01-15T08:35:02;160.77;;;148.07;;
2035;SDS011;23642;42.658;23.350;2024-01-15T08:37:30;154.02;;;142.13;;
2035;SDS011;23642;42.658;23.350;2024-01-15T08:39:57;157.35;;;145.65;;
2035;SDS011;23642;42.658;23.350;2024-01-15T08:42:26;151.30;;;140.45;;
2035;SDS011;23642;42.658;23.350;2024-01-15T08:44:52;152.63;;;141.00;;
2035;SDS011;23642;42.658;23.350;2024-01-15T08:47:19;155.88;;;143.52;;
2035;SDS011;23642;42.658;23.350;2024-01-15T08:49:46;155.27;;;142.10;;
2035;SDS011;23642;42.658;23.350;2024-01-15T08:52:15;153.77;;;142.37;;
2035;SDS011;23642;42.658;23.350;2024-01-15T08:54:42;156.17;;;143.93;;
2035;SDS011;23642;42.658;23.350;2024-01-15T08:57:09;158.60;;;146.67;;
2035;SDS011;23642;42.658;23.350;2024-01-15T08:59:37;161.93;;;149.90;;
2035;SDS011;23642;42.658;23.350;2024-01-15T09:02:04;162.43;;;148.90;;
2035;SDS011;23642;42.658;23.350;2024-01-15T09:04:32;161.67;;;147.37;;
2035;SDS011;23642;42.658;23.350;2024-01-15T09:06:59;159.77;;;146.83;;
2035;SDS011;23642;42.658;23.350;2024-01-15T09:09:28;161.87;;;148.23;;
2035;SDS011;23642;42.658;23.350;2024-01-15T09:11:58;161.60;;;148.63;;
2035;SDS011;23642;42.658;23.350;2024-01-15T09:14:25;157.40;;;145.60;;
2035;SDS011;23642;42.658;23.350;2024-01-15T09:16:54;156.27;;;144.30;;
2035;SDS011;23642;42.658;23.350;2024-01-15T09:19:21;161.82;;;148.90;;
2035;SDS011;23642;42.658;23.350;2024-01-15T09:21:50;167.63;;;152.63;;
2035;SDS011;23642;42.658;23.350;2024-01-15T09:24:17;164.85;;;151.75;;
2035;SDS011;23642;42.658;23.350;2024-01-15T09:26:46;153.57;;;140.37;;
2035;SDS011;23642;42.658;23.350;2024-01-15T09:29:17;158.37;;;145.40;;
2035;SDS011;23642;42.658;23.350;2024-01-15T09:31:45;153.75;;;140.05;;
2035;SDS011;23642;42.658;23.350;2024-01-15T09:34:13;156.83;;;143.67;;
2035;SDS011;23642;42.658;23.350;2024-01-15T09:36:45;162.77;;;149.17;;
2035;SDS011;23642;42.658;23.350;2024-01-15T09:39:14;158.07;;;144.97;;
2035;SDS011;23642;42.658;23.350;2024-01-15T09:41:41;161.23;;;148.97;;
2035;SDS011;23642;42.658;23.350;2024-01-15T09:44:10;160.20;;;147.23;;
2035;SDS011;23642;42.658;23.350;2024-01-15T09:46:38;159.07;;;146.07;;
2035;SDS011;23642;42.658;23.350;2024-01-15T09:49:07;161.27;;;148.13;;
2035;SDS011;23642;42.658;23.350;2024-01-15T09:51:34;166.00;;;151.90;;
2035;SDS011;23642;42.658;23.350;2024-01-15T09:54:02;174.50;;;158.47;;
2035;SDS011;23642;42.658;23.350;2024-01-15T09:56:30;172.38;;;156.77;;
2035;SDS011;23642;42.658;23.350;2024-01-15T09:58:57;162.55;;;148.52;;
2035;SDS011;23642;42.658;23.350;2024-01-15T10:01:26;160.88;;;147.07;;
2035;SDS011;23642;42.658;23.350;2024-01-15T10:03:54;162.60;;;148.77;;
2035;SDS011;23642;42.658;23.350;2024-01-15T10:06:22;157.23;;;144.00;;
2035;SDS011;23642;42.658;23.350;2024-01-15T10:08:50;163.30;;;150.30;;
2035;SDS011;23642;42.658;23.350;2024-01-15T10:11:18;162.00;;;147.80;;
2035;SDS011;23642;42.658;23.350;2024-01-15T10:13:45;157.68;;;144.45;;
2035;SDS011;23642;42.658;23.350;2024-01-15T10:16:16;166.48;;;150.68;;
2035;SDS011;23642;42.658;23.350;2024-01-15T10:18:44;163.88;;;148.95;;
2035;SDS011;23642;42.658;23.350;2024-01-15T10:21:11;168.00;;;152.45;;
2035;SDS011;23642;42.658;23.350;2024-01-15T10:23:41;172.68;;;157.88;;
2035;SDS011;23642;42.658;23.350;2024-01-15T10:26:18;159.90;;;146.30;;
2035;SDS011;23642;42.658;23.350;2024-01-15T10:28:51;155.25;;;141.95;;
2035;SDS011;23642;42.658;23.350;2024-01-15T10:31:18;157.45;;;143.88;;
2035;SDS011;23642;42.658;23.350;2024-01-15T10:33:48;162.63;;;148.45;;
2035;SDS011;23642;42.658;23.350;2024-01-15T10:36:15;165.47;;;151.77;;
2035;SDS011;23642;42.658;23.350;2024-01-15T10:38:43;162.32;;;148.30;;
2035;SDS011;23642;42.658;23.350;2024-01-15T10:41:11;159.68;;;146.82;;
2035;SDS011;23642;42.658;23.350;2024-01-15T10:43:38;148.60;;;137.00;;
2035;SDS011;23642;42.658;23.350;2024-01-15T10:46:06;151.48;;;139.07;;
2035;SDS011;23642;42.658;23.350;2024-01-15T10:48:33;155.13;;;142.43;;
2035;SDS011;23642;42.658;23.350;2024-01-15T10:51:04;158.97;;;145.90;;
2035;SDS011;23642;42.658;23.350;2024-01-15T10:53:36;160.85;;;147.25;;
2035;SDS011;23642;42.658;23.350;2024-01-15T10:56:06;161.98;;;148.63;;
2035;SDS011;23642;42.658;23.350;2024-01-15T10:58:38;158.57;;;145.00;;
2035;SDS011;23642;42.658;23.350;2024-01-15T11:01:08;159.53;;;147.00;;
2035;SDS011;23642;42.658;23.350;2024-01-15T11:03:36;162.10;;;147.80;;
2035;SDS011;23642;42.658;23.350;2024-01-15T11:06:05;169.10;;;154.93;;
2035;SDS011;23642;42.658;23.350;2024-01-15T11:08:45;161.90;;;147.87;;
2035;SDS011;23642;42.658;23.350;2024-01-15T11:11:15;159.07;;;145.83;;
2035;SDS011;23642;42.658;23.350;2024-01-15T11:13:43;159.53;;;145.77;;
2035;SDS011;23642;42.658;23.350;2024-01-15T11:16:15;163.18;;;148.85;;
2035;SDS011;23642;42.658;23.350;2024-01-15T11:18:43;166.95;;;152.32;;
2035;SDS011;23642;42.658;23.350;2024-01-15T11:21:32;171.60;;;157.20;;
2035;SDS011;23642;42.658;23.350;2024-01-15T11:24:01;164.50;;;150.60;;
2035;SDS011;23642;42.658;23.350;2024-01-15T11:26:35;164.17;;;150.87;;
2035;SDS011;23642;42.658;23.350;2024-01-15T11:29:04;165.30;;;151.83;;
2035;SDS011;23642;42.658;23.350;2024-01-15T11:37:24;162.90;;;150.23;;
2035;SDS011;23642;42.658;23.350;2024-01-15T11:39:52;162.10;;;149.07;;
2035;SDS011;23642;42.658;23.350;2024-01-15T11:42:19;155.13;;;143.17;;
2035;SDS011;23642;42.658;23.350;2024-01-15T11:44:47;152.70;;;140.50;;
2035;SDS011;23642;42.658;23.350;2024-01-15T11:47:18;147.73;;;136.40;;
2035;SDS011;23642;42.658;23.350;2024-01-15T11:50:14;148.93;;;138.40;;
2035;SDS011;23642;42.658;23.350;2024-01-15T11:52:42;152.10;;;140.73;;
2035;SDS011;23642;42.658;23.350;2024-01-15T11:55:22;151.27;;;139.97;;
2035;SDS011;23642;42.658;23.350;2024-01-15T11:57:53;150.90;;;137.93;;
2035;SDS011;23642;42.658;23.350;2024-01-15T12:00:22;152.17;;;140.53;;
2035;SDS011;23642;42.658;23.350;2024-01-15T12:02:51;153.57;;;141.60;;
2035;SDS011;23642;42.658;23.350;2024-01-15T12:05:21;149.97;;;138.67;;
2035;SDS011;23642;42.658;23.350;2024-01-15T12:07:50;154.70;;;142.37;;
2035;SDS011;23642;42.658;23.350;2024-01-15T12:10:17;153.53;;;141.93;;
2035;SDS011;23642;42.658;23.350;2024-01-15T12:12:54;150.47;;;138.80;;
2035;SDS011;23642;42.658;23.350;2024-01-15T12:15:24;151.13;;;139.33;;
2035;SDS011;23642;42.658;23.350;2024-01-15T12:17:54;147.93;;;136.00;;
2035;SDS011;23642;42.658;23.350;2024-01-15T12:20:23;149.23;;;137.80;;
2035;SDS011;23642;42.658;23.350;2024-01-15T12:22:52;155.83;;;143.97;;
2035;SDS011;23642;42.658;23.350;2024-01-15T12:25:20;152.67;;;141.17;;
2035;SDS011;23642;42.658;23.350;2024-01-15T12:27:47;151.63;;;140.13;;
2035;SDS011;23642;42.658;23.350;2024-01-15T12:30:15;151.50;;;140.17;;
2035;SDS011;23642;42.658;23.350;2024-01-15T12:32:43;149.60;;;138.17;;
2035;SDS011;23642;42.658;23.350;2024-01-15T12:35:11;148.13;;;137.03;;
2035;SDS011;23642;42.658;23.350;2024-01-15T12:37:41;146.83;;;135.67;;
2035;SDS011;23642;42.658;23.350;2024-01-15T12:40:19;151.47;;;139.23;;
2035;SDS011;23642;42.658;23.350;2024-01-15T12:42:46;162.20;;;146.20;;
2035;SDS011;23642;42.658;23.350;2024-01-15T12:45:13;150.43;;;139.10;;
2035;SDS011;23642;42.658;23.350;2024-01-15T12:47:41;151.63;;;139.50;;
2035;SDS011;23642;42.658;23.350;2024-01-15T12:50:09;146.57;;;135.52;;
2035;SDS011;23642;42.658;23.350;2024-01-15T12:52:36;146.73;;;135.30;;
2035;SDS011;23642;42.658;23.350;2024-01-15T12:55:04;152.00;;;139.50;;
2035;SDS011;23642;42.658;23.350;2024-01-15T12:57:33;152.20;;;140.93;;
2035;SDS011;23642;42.658;23.350;2024-01-15T13:00:01;153.00;;;141.37;;
2035;SDS011;23642;42.658;23.350;2024-01-15T13:02:31;150.40;;;139.47;;
2035;SDS011;23642;42.658;23.350;2024-01-15T13:04:59;149.97;;;138.97;;
2035;SDS011;23642;42.658;23.350;2024-01-15T13:07:27;152.30;;;138.43;;
2035;SDS011;23642;42.658;23.350;2024-01-15T13:09:53;148.80;;;136.67;;
2035;SDS011;23642;42.658;23.350;2024-01-15T13:12:21;153.00;;;140.87;;
2035;SDS011;23642;42.658;23.350;2024-01-15T13:14:49;156.97;;;144.10;;
2035;SDS011;23642;42.658;23.350;2024-01-15T13:17:17;152.90;;;141.70;;
2035;SDS011;23642;42.658;23.350;2024-01-15T13:19:46;153.93;;;140.83;;
2035;SDS011;23642;42.658;23.350;2024-01-15T13:22:13;148.83;;;137.40;;
2035;SDS011;23642;42.658;23.350;2024-01-15T13:24:40;151.03;;;139.83;;
2035;SDS011;23642;42.658;23.350;2024-01-15T13:27:08;151.00;;;138.53;;
2035;SDS011;23642;42.658;23.350;2024-01-15T13:29:37;148.43;;;136.83;;
2035;SDS011;23642;42.658;23.350;2024-01-15T13:32:36;152.03;;;139.70;;
2035;SDS011;23642;42.658;23.350;2024-01-15T13:35:04;148.87;;;137.60;;
2035;SDS011;23642;42.658;23.350;2024-01-15T13:37:35;153.03;;;140.93;;
2035;SDS011;23642;42.658;23.350;2024-01-15T13:40:09;147.13;;;135.13;;
2035;SDS011;23642;42.658;23.350;2024-01-15T13:42:41;150.90;;;138.40;;
2035;SDS011;23642;42.658;23.350;2024-01-15T13:45:10;147.90;;;136.37;;
2035;SDS011;23642;42.658;23.350;2024-01-15T13:47:40;150.90;;;139.30;;
2035;SDS011;23642;42.658;23.350;2024-01-15T13:50:09;149.65;;;137.68;;
2035;SDS011;23642;42.658;23.350;2024-01-15T13:52:39;152.17;;;139.93;;
2035;SDS011;23642;42.658;23.350;2024-01-15T13:55:06;147.53;;;136.70;;
2035;SDS011;23642;42.658;23.350;2024-01-15T13:57:33;146.23;;;135.00;;
2035;SDS011;23642;42.658;23.350;2024-01-15T14:00:01;150.97;;;138.30;;
2035;SDS011;23642;42.658;23.350;2024-01-15T14:02:31;150.23;;;137.93;;
2035;SDS011;23642;42.658;23.350;2024-01-15T14:04:58;145.67;;;135.10;;
2035;SDS011;23642;42.658;23.350;2024-01-15T14:07:28;148.67;;;137.07;;
2035;SDS011;23642;42.658;23.350;2024-01-15T14:09:55;154.63;;;142.33;;
2035;SDS011;23642;42.658;23.350;2024-01-15T14:12:23;157.13;;;144.32;;